Terminal Aerodrome Forecast
Issued by NWS Knoxville/Tri Cities, TN

Home | Current Version | Previous Version | Text Only | Print | Product List | Glossary On
Versions: 1 2 3 4 5 6 7 8 9 10 11 12 13 14 15 16
000
FTUS44 KMRX 271120
TAFTRI
TAF
KTRI 271120Z 2712/2812 VRB05KT P6SM VCSH SCT040 BKN120
      TEMPO 2712/2714 BKN040
     FM271800 26008KT P6SM VCTS SCT050CB BKN080
     FM280100 00000KT P6SM SCT050 BKN100
     FM280600 00000KT P6SM SCT030 BKN050=

USA.gov is the U.S. government's official web portal to all federal, state and local government web resources and services.